sensor_id;sensor_type;location;lat;lon;timestamp;P1;durP1;ratioP1;P2;durP2;ratioP2
76069;SDS011;64768;51.738;5.852;2023-02-17T00:01:09;19.63;;;11.88;;
76069;SDS011;64768;51.738;5.852;2023-02-17T00:03:44;27.63;;;16.08;;
76069;SDS011;64768;51.738;5.852;2023-02-17T00:06:19;25.17;;;14.98;;
76069;SDS011;64768;51.738;5.852;2023-02-17T00:09:07;27.63;;;15.05;;
76069;SDS011;64768;51.738;5.852;2023-02-17T00:11:42;18.23;;;11.68;;
76069;SDS011;64768;51.738;5.852;2023-02-17T00:14:12;26.85;;;16.23;;
76069;SDS011;64768;51.738;5.852;2023-02-17T00:16:43;24.90;;;15.40;;
76069;SDS011;64768;51.738;5.852;2023-02-17T00:19:13;18.13;;;12.23;;
76069;SDS011;64768;51.738;5.852;2023-02-17T00:21:52;20.10;;;11.52;;
76069;SDS011;64768;51.738;5.852;2023-02-17T00:24:23;21.73;;;13.45;;
76069;SDS011;64768;51.738;5.852;2023-02-17T00:26:56;20.63;;;12.88;;
76069;SDS011;64768;51.738;5.852;2023-02-17T00:29:26;10.30;;;6.03;;
76069;SDS011;64768;51.738;5.852;2023-02-17T00:31:59;10.57;;;6.68;;
76069;SDS011;64768;51.738;5.852;2023-02-17T00:34:29;19.13;;;12.38;;
76069;SDS011;64768;51.738;5.852;2023-02-17T00:36:59;12.00;;;7.05;;
76069;SDS011;64768;51.738;5.852;2023-02-17T00:39:30;17.70;;;12.00;;
76069;SDS011;64768;51.738;5.852;2023-02-17T00:42:15;17.13;;;11.13;;
76069;SDS011;64768;51.738;5.852;2023-02-17T00:44:45;16.92;;;9.13;;
76069;SDS011;64768;51.738;5.852;2023-02-17T00:47:23;11.73;;;8.25;;
76069;SDS011;64768;51.738;5.852;2023-02-17T00:49:53;9.43;;;6.65;;
76069;SDS011;64768;51.738;5.852;2023-02-17T00:52:23;15.73;;;9.90;;
76069;SDS011;64768;51.738;5.852;2023-02-17T00:54:57;8.65;;;5.57;;
76069;SDS011;64768;51.738;5.852;2023-02-17T00:57:43;13.88;;;8.60;;
76069;SDS011;64768;51.738;5.852;2023-02-17T01:00:22;10.77;;;6.45;;
76069;SDS011;64768;51.738;5.852;2023-02-17T01:03:11;12.05;;;8.10;;
76069;SDS011;64768;51.738;5.852;2023-02-17T01:05:57;11.80;;;8.07;;
76069;SDS011;64768;51.738;5.852;2023-02-17T01:08:27;13.45;;;8.10;;
76069;SDS011;64768;51.738;5.852;2023-02-17T01:13:38;9.60;;;5.82;;
76069;SDS011;64768;51.738;5.852;2023-02-17T01:16:34;13.20;;;8.00;;
76069;SDS011;64768;51.738;5.852;2023-02-17T01:19:25;13.48;;;8.38;;
76069;SDS011;64768;51.738;5.852;2023-02-17T01:21:55;10.18;;;6.65;;
76069;SDS011;64768;51.738;5.852;2023-02-17T01:24:26;13.60;;;7.97;;
76069;SDS011;64768;51.738;5.852;2023-02-17T01:26:56;13.15;;;8.30;;
76069;SDS011;64768;51.738;5.852;2023-02-17T01:29:28;14.98;;;8.40;;
76069;SDS011;64768;51.738;5.852;2023-02-17T01:31:57;8.88;;;5.35;;
76069;SDS011;64768;51.738;5.852;2023-02-17T01:36:55;18.20;;;10.65;;
76069;SDS011;64768;51.738;5.852;2023-02-17T01:39:25;14.52;;;8.10;;
76069;SDS011;64768;51.738;5.852;2023-02-17T01:41:55;13.88;;;8.43;;
76069;SDS011;64768;51.738;5.852;2023-02-17T01:44:24;19.75;;;10.93;;
76069;SDS011;64768;51.738;5.852;2023-02-17T01:46:59;19.95;;;9.57;;
76069;SDS011;64768;51.738;5.852;2023-02-17T01:49:37;12.70;;;6.13;;
76069;SDS011;64768;51.738;5.852;2023-02-17T01:52:12;8.02;;;4.63;;
76069;SDS011;64768;51.738;5.852;2023-02-17T01:54:50;15.50;;;9.48;;
76069;SDS011;64768;51.738;5.852;2023-02-17T02:00:09;9.85;;;5.18;;
76069;SDS011;64768;51.738;5.852;2023-02-17T02:02:43;15.75;;;9.75;;
76069;SDS011;64768;51.738;5.852;2023-02-17T02:05:26;12.18;;;6.38;;
76069;SDS011;64768;51.738;5.852;2023-02-17T02:19:02;17.60;;;9.52;;
76069;SDS011;64768;51.738;5.852;2023-02-17T02:24:35;13.02;;;7.93;;
76069;SDS011;64768;51.738;5.852;2023-02-17T02:30:13;14.85;;;8.30;;
76069;SDS011;64768;51.738;5.852;2023-02-17T02:36:04;17.13;;;10.85;;
76069;SDS011;64768;51.738;5.852;2023-02-17T02:38:39;20.73;;;13.88;;
76069;SDS011;64768;51.738;5.852;2023-02-17T02:41:13;12.13;;;6.25;;
76069;SDS011;64768;51.738;5.852;2023-02-17T02:43:50;19.70;;;11.32;;
76069;SDS011;64768;51.738;5.852;2023-02-17T02:46:20;16.92;;;11.07;;
76069;SDS011;64768;51.738;5.852;2023-02-17T02:48:56;19.05;;;10.02;;
76069;SDS011;64768;51.738;5.852;2023-02-17T02:51:32;12.10;;;7.28;;
76069;SDS011;64768;51.738;5.852;2023-02-17T02:54:17;18.75;;;9.63;;
76069;SDS011;64768;51.738;5.852;2023-02-17T02:59:55;15.65;;;9.57;;
76069;SDS011;64768;51.738;5.852;2023-02-17T03:02:36;10.57;;;6.63;;
76069;SDS011;64768;51.738;5.852;2023-02-17T03:05:17;17.67;;;11.30;;
76069;SDS011;64768;51.738;5.852;2023-02-17T03:07:57;15.98;;;9.07;;
76069;SDS011;64768;51.738;5.852;2023-02-17T03:10:30;17.73;;;10.88;;
76069;SDS011;64768;51.738;5.852;2023-02-17T03:13:08;17.98;;;9.35;;
76069;SDS011;64768;51.738;5.852;2023-02-17T03:15:40;19.23;;;11.65;;
76069;SDS011;64768;51.738;5.852;2023-02-17T03:18:11;14.30;;;8.85;;
76069;SDS011;64768;51.738;5.852;2023-02-17T03:20:45;18.27;;;10.32;;
76069;SDS011;64768;51.738;5.852;2023-02-17T03:23:19;19.17;;;11.77;;
76069;SDS011;64768;51.738;5.852;2023-02-17T03:25:49;17.58;;;10.50;;
76069;SDS011;64768;51.738;5.852;2023-02-17T03:28:19;13.55;;;6.93;;
76069;SDS011;64768;51.738;5.852;2023-02-17T03:30:52;15.63;;;9.60;;
76069;SDS011;64768;51.738;5.852;2023-02-17T03:33:22;12.63;;;6.47;;
76069;SDS011;64768;51.738;5.852;2023-02-17T03:35:57;12.77;;;6.57;;
76069;SDS011;64768;51.738;5.852;2023-02-17T03:38:30;16.48;;;8.93;;
76069;SDS011;64768;51.738;5.852;2023-02-17T03:40:59;17.50;;;9.20;;
76069;SDS011;64768;51.738;5.852;2023-02-17T03:43:29;21.05;;;11.82;;
76069;SDS011;64768;51.738;5.852;2023-02-17T03:48:30;18.08;;;9.55;;
76069;SDS011;64768;51.738;5.852;2023-02-17T03:51:13;15.85;;;7.65;;
76069;SDS011;64768;51.738;5.852;2023-02-17T03:53:50;13.48;;;6.57;;
76069;SDS011;64768;51.738;5.852;2023-02-17T03:56:24;17.45;;;9.55;;
76069;SDS011;64768;51.738;5.852;2023-02-17T03:59:13;17.52;;;9.63;;
76069;SDS011;64768;51.738;5.852;2023-02-17T04:01:43;15.10;;;7.97;;
76069;SDS011;64768;51.738;5.852;2023-02-17T04:04:12;23.33;;;11.85;;
76069;SDS011;64768;51.738;5.852;2023-02-17T04:09:14;13.35;;;7.10;;
76069;SDS011;64768;51.738;5.852;2023-02-17T04:11:46;15.40;;;8.93;;
76069;SDS011;64768;51.738;5.852;2023-02-17T04:14:20;21.73;;;11.23;;
76069;SDS011;64768;51.738;5.852;2023-02-17T04:16:50;19.55;;;9.63;;
76069;SDS011;64768;51.738;5.852;2023-02-17T04:19:19;18.92;;;10.23;;
76069;SDS011;64768;51.738;5.852;2023-02-17T04:21:54;22.88;;;10.50;;
76069;SDS011;64768;51.738;5.852;2023-02-17T04:24:28;20.77;;;11.40;;
76069;SDS011;64768;51.738;5.852;2023-02-17T04:26:58;21.33;;;12.48;;
76069;SDS011;64768;51.738;5.852;2023-02-17T04:29:30;22.50;;;12.25;;
76069;SDS011;64768;51.738;5.852;2023-02-17T04:31:59;14.82;;;7.55;;
76069;SDS011;64768;51.738;5.852;2023-02-17T04:34:31;12.57;;;7.63;;
76069;SDS011;64768;51.738;5.852;2023-02-17T04:37:05;13.50;;;7.50;;
76069;SDS011;64768;51.738;5.852;2023-02-17T04:39:43;20.83;;;9.20;;
76069;SDS011;64768;51.738;5.852;2023-02-17T04:42:12;20.02;;;12.02;;
76069;SDS011;64768;51.738;5.852;2023-02-17T04:44:44;19.85;;;10.75;;
76069;SDS011;64768;51.738;5.852;2023-02-17T04:47:17;17.27;;;8.40;;
76069;SDS011;64768;51.738;5.852;2023-02-17T04:49:47;12.93;;;7.28;;
76069;SDS011;64768;51.738;5.852;2023-02-17T04:52:19;18.30;;;8.18;;
76069;SDS011;64768;51.738;5.852;2023-02-17T04:54:49;15.25;;;6.45;;
76069;SDS011;64768;51.738;5.852;2023-02-17T04:57:21;13.95;;;7.70;;
76069;SDS011;64768;51.738;5.852;2023-02-17T04:59:55;11.00;;;6.53;;
76069;SDS011;64768;51.738;5.852;2023-02-17T05:02:27;10.43;;;5.20;;
76069;SDS011;64768;51.738;5.852;2023-02-17T05:04:57;15.93;;;8.80;;
76069;SDS011;64768;51.738;5.852;2023-02-17T05:10:06;15.85;;;8.45;;
76069;SDS011;64768;51.738;5.852;2023-02-17T05:12:37;11.75;;;6.32;;
76069;SDS011;64768;51.738;5.852;2023-02-17T05:15:07;15.15;;;7.55;;
76069;SDS011;64768;51.738;5.852;2023-02-17T05:17:37;12.75;;;7.60;;
76069;SDS011;64768;51.738;5.852;2023-02-17T05:20:09;15.45;;;8.73;;
76069;SDS011;64768;51.738;5.852;2023-02-17T05:22:42;11.60;;;7.75;;
76069;SDS011;64768;51.738;5.852;2023-02-17T05:25:13;17.00;;;9.93;;
76069;SDS011;64768;51.738;5.852;2023-02-17T05:31:10;10.90;;;6.93;;
76069;SDS011;64768;51.738;5.852;2023-02-17T05:33:40;11.55;;;6.38;;
76069;SDS011;64768;51.738;5.852;2023-02-17T05:36:15;12.27;;;7.22;;
76069;SDS011;64768;51.738;5.852;2023-02-17T05:41:16;12.35;;;6.97;;
76069;SDS011;64768;51.738;5.852;2023-02-17T05:43:50;14.27;;;7.05;;
76069;SDS011;64768;51.738;5.852;2023-02-17T05:46:25;12.93;;;7.22;;
76069;SDS011;64768;51.738;5.852;2023-02-17T05:49:00;15.40;;;8.38;;
76069;SDS011;64768;51.738;5.852;2023-02-17T05:51:31;10.30;;;5.70;;
76069;SDS011;64768;51.738;5.852;2023-02-17T05:54:04;13.07;;;6.80;;
76069;SDS011;64768;51.738;5.852;2023-02-17T05:56:33;12.88;;;6.95;;
76069;SDS011;64768;51.738;5.852;2023-02-17T05:59:18;12.18;;;5.60;;
76069;SDS011;64768;51.738;5.852;2023-02-17T06:01:47;17.42;;;10.93;;
76069;SDS011;64768;51.738;5.852;2023-02-17T06:06:46;12.40;;;6.80;;
76069;SDS011;64768;51.738;5.852;2023-02-17T06:09:18;12.45;;;6.28;;
76069;SDS011;64768;51.738;5.852;2023-02-17T06:11:50;7.38;;;3.88;;
76069;SDS011;64768;51.738;5.852;2023-02-17T06:14:23;14.07;;;6.82;;
76069;SDS011;64768;51.738;5.852;2023-02-17T06:16:56;11.50;;;5.55;;
76069;SDS011;64768;51.738;5.852;2023-02-17T06:19:28;9.90;;;5.68;;
76069;SDS011;64768;51.738;5.852;2023-02-17T06:22:07;6.65;;;4.47;;
76069;SDS011;64768;51.738;5.852;2023-02-17T06:27:19;13.18;;;7.35;;
76069;SDS011;64768;51.738;5.852;2023-02-17T06:32:27;13.85;;;8.00;;
76069;SDS011;64768;51.738;5.852;2023-02-17T06:37:35;10.82;;;5.55;;
76069;SDS011;64768;51.738;5.852;2023-02-17T06:40:09;10.30;;;6.47;;
76069;SDS011;64768;51.738;5.852;2023-02-17T06:42:42;12.50;;;7.32;;
76069;SDS011;64768;51.738;5.852;2023-02-17T06:45:13;13.82;;;7.70;;
76069;SDS011;64768;51.738;5.852;2023-02-17T06:47:50;15.40;;;7.35;;
76069;SDS011;64768;51.738;5.852;2023-02-17T06:50:31;12.82;;;8.65;;
76069;SDS011;64768;51.738;5.852;2023-02-17T06:53:04;12.77;;;6.10;;
76069;SDS011;64768;51.738;5.852;2023-02-17T06:55:39;12.05;;;5.88;;
76069;SDS011;64768;51.738;5.852;2023-02-17T07:01:05;19.75;;;9.57;;
76069;SDS011;64768;51.738;5.852;2023-02-17T07:03:51;8.02;;;5.25;;
76069;SDS011;64768;51.738;5.852;2023-02-17T07:06:20;15.35;;;7.68;;
76069;SDS011;64768;51.738;5.852;2023-02-17T07:09:00;13.15;;;8.15;;
76069;SDS011;64768;51.738;5.852;2023-02-17T07:11:43;15.55;;;7.53;;
76069;SDS011;64768;51.738;5.852;2023-02-17T07:14:24;14.55;;;7.85;;
76069;SDS011;64768;51.738;5.852;2023-02-17T07:16:55;17.63;;;9.55;;
76069;SDS011;64768;51.738;5.852;2023-02-17T07:19:30;9.43;;;5.43;;
76069;SDS011;64768;51.738;5.852;2023-02-17T07:22:16;11.35;;;5.72;;
76069;SDS011;64768;51.738;5.852;2023-02-17T07:24:49;14.93;;;7.63;;
76069;SDS011;64768;51.738;5.852;2023-02-17T07:27:27;19.35;;;10.93;;
76069;SDS011;64768;51.738;5.852;2023-02-17T07:30:16;12.10;;;6.18;;
76069;SDS011;64768;51.738;5.852;2023-02-17T07:32:48;12.85;;;7.18;;
76069;SDS011;64768;51.738;5.852;2023-02-17T07:35:29;14.68;;;7.22;;
76069;SDS011;64768;51.738;5.852;2023-02-17T07:40:44;15.55;;;8.48;;
76069;SDS011;64768;51.738;5.852;2023-02-17T07:43:41;14.15;;;8.38;;
76069;SDS011;64768;51.738;5.852;2023-02-17T07:46:19;15.73;;;7.60;;
76069;SDS011;64768;51.738;5.852;2023-02-17T07:48:49;11.48;;;7.20;;
76069;SDS011;64768;51.738;5.852;2023-02-17T07:51:35;13.25;;;7.80;;
76069;SDS011;64768;51.738;5.852;2023-02-17T07:54:08;16.02;;;9.80;;
76069;SDS011;64768;51.738;5.852;2023-02-17T07:56:49;10.70;;;5.78;;
76069;SDS011;64768;51.738;5.852;2023-02-17T07:59:21;11.80;;;7.65;;
76069;SDS011;64768;51.738;5.852;2023-02-17T08:02:02;11.43;;;5.35;;
76069;SDS011;64768;51.738;5.852;2023-02-17T08:04:34;13.85;;;8.00;;
76069;SDS011;64768;51.738;5.852;2023-02-17T08:15:12;11.07;;;5.68;;
76069;SDS011;64768;51.738;5.852;2023-02-17T08:17:46;10.02;;;5.30;;
76069;SDS011;64768;51.738;5.852;2023-02-17T08:20:20;12.98;;;6.07;;
76069;SDS011;64768;51.738;5.852;2023-02-17T08:22:56;14.70;;;7.43;;
76069;SDS011;64768;51.738;5.852;2023-02-17T08:25:30;13.07;;;5.43;;
76069;SDS011;64768;51.738;5.852;2023-02-17T08:28:01;11.55;;;6.22;;
76069;SDS011;64768;51.738;5.852;2023-02-17T08:30:36;17.73;;;9.77;;
76069;SDS011;64768;51.738;5.852;2023-02-17T08:33:25;13.05;;;9.30;;
76069;SDS011;64768;51.738;5.852;2023-02-17T08:35:58;15.38;;;9.63;;
76069;SDS011;64768;51.738;5.852;2023-02-17T08:38:49;13.90;;;7.80;;
76069;SDS011;64768;51.738;5.852;2023-02-17T08:41:36;17.98;;;10.73;;
76069;SDS011;64768;51.738;5.852;2023-02-17T08:44:13;18.92;;;12.20;;
76069;SDS011;64768;51.738;5.852;2023-02-17T08:54:49;16.85;;;9.05;;
76069;SDS011;64768;51.738;5.852;2023-02-17T08:57:21;20.30;;;11.63;;
76069;SDS011;64768;51.738;5.852;2023-02-17T08:59:55;18.17;;;9.93;;
76069;SDS011;64768;51.738;5.852;2023-02-17T09:02:34;19.85;;;10.20;;
76069;SDS011;64768;51.738;5.852;2023-02-17T09:05:15;19.50;;;12.52;;
76069;SDS011;64768;51.738;5.852;2023-02-17T09:07:45;17.95;;;11.85;;
76069;SDS011;64768;51.738;5.852;2023-02-17T09:10:21;16.42;;;7.70;;
76069;SDS011;64768;51.738;5.852;2023-02-17T09:12:53;15.23;;;8.85;;
76069;SDS011;64768;51.738;5.852;2023-02-17T09:15:34;19.25;;;12.00;;
76069;SDS011;64768;51.738;5.852;2023-02-17T09:18:17;13.35;;;7.45;;
76069;SDS011;64768;51.738;5.852;2023-02-17T09:21:04;18.27;;;10.75;;
76069;SDS011;64768;51.738;5.852;2023-02-17T09:23:41;19.13;;;10.45;;
76069;SDS011;64768;51.738;5.852;2023-02-17T09:29:14;13.55;;;8.60;;
76069;SDS011;64768;51.738;5.852;2023-02-17T09:31:45;21.75;;;14.27;;
76069;SDS011;64768;51.738;5.852;2023-02-17T09:34:23;19.30;;;12.57;;
76069;SDS011;64768;51.738;5.852;2023-02-17T09:37:21;12.63;;;6.13;;
76069;SDS011;64768;51.738;5.852;2023-02-17T09:40:08;15.48;;;8.32;;
76069;SDS011;64768;51.738;5.852;2023-02-17T09:42:47;11.40;;;7.10;;
76069;SDS011;64768;51.738;5.852;2023-02-17T09:45:23;16.45;;;11.38;;
76069;SDS011;64768;51.738;5.852;2023-02-17T09:48:04;12.80;;;8.00;;
76069;SDS011;64768;51.738;5.852;2023-02-17T09:50:37;17.52;;;11.00;;
76069;SDS011;64768;51.738;5.852;2023-02-17T09:53:16;17.88;;;11.50;;
76069;SDS011;64768;51.738;5.852;2023-02-17T09:56:03;11.63;;;6.65;;
76069;SDS011;64768;51.738;5.852;2023-02-17T09:58:54;21.65;;;15.68;;
76069;SDS011;64768;51.738;5.852;2023-02-17T10:01:30;17.85;;;13.10;;
76069;SDS011;64768;51.738;5.852;2023-02-17T10:04:16;21.30;;;14.25;;
76069;SDS011;64768;51.738;5.852;2023-02-17T10:06:59;16.25;;;11.40;;
76069;SDS011;64768;51.738;5.852;2023-02-17T10:09:38;16.42;;;11.10;;
76069;SDS011;64768;51.738;5.852;2023-02-17T10:12:18;16.45;;;9.35;;
76069;SDS011;64768;51.738;5.852;2023-02-17T10:14:57;17.10;;;11.82;;
76069;SDS011;64768;51.738;5.852;2023-02-17T10:17:32;10.93;;;6.88;;
76069;SDS011;64768;51.738;5.852;2023-02-17T10:22:41;17.10;;;11.05;;
76069;SDS011;64768;51.738;5.852;2023-02-17T10:25:15;16.17;;;10.68;;
76069;SDS011;64768;51.738;5.852;2023-02-17T10:27:58;16.52;;;12.43;;
76069;SDS011;64768;51.738;5.852;2023-02-17T10:30:42;16.58;;;12.40;;
76069;SDS011;64768;51.738;5.852;2023-02-17T10:33:27;13.98;;;9.65;;
76069;SDS011;64768;51.738;5.852;2023-02-17T10:36:09;9.35;;;6.75;;
76069;SDS011;64768;51.738;5.852;2023-02-17T10:39:08;9.13;;;6.20;;
76069;SDS011;64768;51.738;5.852;2023-02-17T10:41:50;15.27;;;12.48;;
76069;SDS011;64768;51.738;5.852;2023-02-17T10:44:35;11.82;;;7.95;;
76069;SDS011;64768;51.738;5.852;2023-02-17T10:47:13;15.35;;;11.75;;
76069;SDS011;64768;51.738;5.852;2023-02-17T10:49:47;15.57;;;11.55;;
76069;SDS011;64768;51.738;5.852;2023-02-17T10:52:29;11.52;;;9.65;;
76069;SDS011;64768;51.738;5.852;2023-02-17T11:00:43;14.18;;;11.18;;
76069;SDS011;64768;51.738;5.852;2023-02-17T11:09:02;8.18;;;5.40;;
76069;SDS011;64768;51.738;5.852;2023-02-17T11:11:48;13.23;;;8.82;;
76069;SDS011;64768;51.738;5.852;2023-02-17T11:14:27;11.82;;;10.52;;
76069;SDS011;64768;51.738;5.852;2023-02-17T11:17:11;10.95;;;9.75;;
76069;SDS011;64768;51.738;5.852;2023-02-17T11:23:15;12.50;;;8.30;;
76069;SDS011;64768;51.738;5.852;2023-02-17T11:26:02;8.18;;;6.43;;
76069;SDS011;64768;51.738;5.852;2023-02-17T11:28:44;7.63;;;5.47;;
76069;SDS011;64768;51.738;5.852;2023-02-17T11:40:09;13.32;;;10.00;;
76069;SDS011;64768;51.738;5.852;2023-02-17T11:45:28;11.18;;;6.68;;
76069;SDS011;64768;51.738;5.852;2023-02-17T11:51:46;11.15;;;7.15;;
76069;SDS011;64768;51.738;5.852;2023-02-17T11:54:46;7.68;;;6.03;;
76069;SDS011;64768;51.738;5.852;2023-02-17T11:57:36;11.82;;;9.10;;
76069;SDS011;64768;51.738;5.852;2023-02-17T12:00:21;10.10;;;7.85;;
76069;SDS011;64768;51.738;5.852;2023-02-17T12:03:33;10.57;;;9.05;;
76069;SDS011;64768;51.738;5.852;2023-02-17T13:46:22;8.05;;;5.05;;
76069;SDS011;64768;51.738;5.852;2023-02-17T15:05:23;6.78;;;4.25;;
76069;SDS011;64768;51.738;5.852;2023-02-17T15:07:57;7.30;;;4.72;;
76069;SDS011;64768;51.738;5.852;2023-02-17T15:10:39;6.55;;;3.92;;
76069;SDS011;64768;51.738;5.852;2023-02-17T15:13:11;11.48;;;4.70;;
76069;SDS011;64768;51.738;5.852;2023-02-17T15:15:58;4.82;;;3.42;;
76069;SDS011;64768;51.738;5.852;2023-02-17T15:31:22;3.80;;;2.28;;
76069;SDS011;64768;51.738;5.852;2023-02-17T15:44:17;5.95;;;2.90;;
76069;SDS011;64768;51.738;5.852;2023-02-17T15:53:59;7.95;;;4.68;;
76069;SDS011;64768;51.738;5.852;2023-02-17T16:07:51;5.60;;;4.25;;
76069;SDS011;64768;51.738;5.852;2023-02-17T16:13:08;5.47;;;4.20;;
76069;SDS011;64768;51.738;5.852;2023-02-17T16:16:12;6.55;;;3.78;;
76069;SDS011;64768;51.738;5.852;2023-02-17T16:18:49;7.93;;;4.72;;
76069;SDS011;64768;51.738;5.852;2023-02-17T16:21:34;3.70;;;2.35;;
76069;SDS011;64768;51.738;5.852;2023-02-17T16:24:09;7.10;;;4.57;;
76069;SDS011;64768;51.738;5.852;2023-02-17T16:26:50;9.05;;;5.25;;
76069;SDS011;64768;51.738;5.852;2023-02-17T16:29:59;4.85;;;3.90;;
76069;SDS011;64768;51.738;5.852;2023-02-17T16:32:37;8.02;;;4.68;;
76069;SDS011;64768;51.738;5.852;2023-02-17T16:38:33;5.13;;;3.88;;
76069;SDS011;64768;51.738;5.852;2023-02-17T16:41:18;8.23;;;5.00;;
76069;SDS011;64768;51.738;5.852;2023-02-17T16:44:08;7.03;;;4.75;;
76069;SDS011;64768;51.738;5.852;2023-02-17T16:47:15;7.15;;;5.32;;
76069;SDS011;64768;51.738;5.852;2023-02-17T16:50:01;7.55;;;4.78;;
76069;SDS011;64768;51.738;5.852;2023-02-17T16:52:52;8.48;;;6.00;;
76069;SDS011;64768;51.738;5.852;2023-02-17T16:55:32;7.45;;;4.95;;
76069;SDS011;64768;51.738;5.852;2023-02-17T16:58:23;8.48;;;5.53;;
76069;SDS011;64768;51.738;5.852;2023-02-17T17:01:05;10.80;;;5.82;;
76069;SDS011;64768;51.738;5.852;2023-02-17T17:03:56;9.40;;;5.97;;
76069;SDS011;64768;51.738;5.852;2023-02-17T17:09:19;10.25;;;6.00;;
76069;SDS011;64768;51.738;5.852;2023-02-17T17:12:01;10.98;;;7.65;;
76069;SDS011;64768;51.738;5.852;2023-02-17T17:19:51;11.63;;;8.20;;
76069;SDS011;64768;51.738;5.852;2023-02-17T17:22:24;11.57;;;8.50;;
76069;SDS011;64768;51.738;5.852;2023-02-17T17:25:00;13.57;;;8.50;;
76069;SDS011;64768;51.738;5.852;2023-02-17T17:27:40;10.35;;;8.65;;
76069;SDS011;64768;51.738;5.852;2023-02-17T17:30:12;9.85;;;7.05;;
76069;SDS011;64768;51.738;5.852;2023-02-17T17:37:59;13.15;;;7.82;;
76069;SDS011;64768;51.738;5.852;2023-02-17T17:40:32;12.55;;;8.90;;
76069;SDS011;64768;51.738;5.852;2023-02-17T17:43:12;13.07;;;7.88;;
76069;SDS011;64768;51.738;5.852;2023-02-17T17:48:31;10.57;;;7.60;;
76069;SDS011;64768;51.738;5.852;2023-02-17T18:17:15;9.95;;;6.72;;
76069;SDS011;64768;51.738;5.852;2023-02-17T18:22:26;10.73;;;7.97;;
76069;SDS011;64768;51.738;5.852;2023-02-17T18:25:06;9.38;;;6.50;;
76069;SDS011;64768;51.738;5.852;2023-02-17T18:27:50;13.43;;;8.35;;
76069;SDS011;64768;51.738;5.852;2023-02-17T18:33:58;12.55;;;8.02;;
76069;SDS011;64768;51.738;5.852;2023-02-17T18:37:00;12.13;;;7.65;;
76069;SDS011;64768;51.738;5.852;2023-02-17T18:39:41;9.10;;;6.20;;
76069;SDS011;64768;51.738;5.852;2023-02-17T18:45:40;8.63;;;5.25;;
76069;SDS011;64768;51.738;5.852;2023-02-17T18:57:04;7.40;;;4.25;;
76069;SDS011;64768;51.738;5.852;2023-02-17T18:59:48;11.63;;;5.55;;
76069;SDS011;64768;51.738;5.852;2023-02-17T19:02:31;4.45;;;2.28;;
76069;SDS011;64768;51.738;5.852;2023-02-17T19:08:48;12.15;;;6.18;;
76069;SDS011;64768;51.738;5.852;2023-02-17T19:11:33;11.65;;;6.13;;
76069;SDS011;64768;51.738;5.852;2023-02-17T19:14:31;8.50;;;4.45;;
76069;SDS011;64768;51.738;5.852;2023-02-17T19:17:17;12.82;;;7.10;;
76069;SDS011;64768;51.738;5.852;2023-02-17T19:19:49;11.35;;;7.03;;
76069;SDS011;64768;51.738;5.852;2023-02-17T19:22:37;11.10;;;6.95;;
76069;SDS011;64768;51.738;5.852;2023-02-17T19:25:17;8.73;;;6.25;;
76069;SDS011;64768;51.738;5.852;2023-02-17T19:27:55;12.88;;;7.53;;
76069;SDS011;64768;51.738;5.852;2023-02-17T19:30:38;8.40;;;5.38;;
76069;SDS011;64768;51.738;5.852;2023-02-17T19:33:22;10.77;;;5.95;;
76069;SDS011;64768;51.738;5.852;2023-02-17T19:36:00;13.00;;;8.60;;
76069;SDS011;64768;51.738;5.852;2023-02-17T19:38:46;9.35;;;6.18;;
76069;SDS011;64768;51.738;5.852;2023-02-17T19:41:25;12.65;;;6.28;;
76069;SDS011;64768;51.738;5.852;2023-02-17T19:44:18;10.50;;;5.50;;
76069;SDS011;64768;51.738;5.852;2023-02-17T19:47:12;13.13;;;8.95;;
76069;SDS011;64768;51.738;5.852;2023-02-17T19:49:56;15.95;;;10.13;;
76069;SDS011;64768;51.738;5.852;2023-02-17T19:52:55;9.55;;;3.95;;
76069;SDS011;64768;51.738;5.852;2023-02-17T19:55:43;18.83;;;9.52;;
76069;SDS011;64768;51.738;5.852;2023-02-17T19:58:19;13.52;;;7.75;;
76069;SDS011;64768;51.738;5.852;2023-02-17T20:01:04;18.23;;;9.82;;
76069;SDS011;64768;51.738;5.852;2023-02-17T21:06:51;12.95;;;6.90;;
76069;SDS011;64768;51.738;5.852;2023-02-17T21:10:28;18.17;;;12.65;;
76069;SDS011;64768;51.738;5.852;2023-02-17T21:19:10;17.65;;;8.80;;
76069;SDS011;64768;51.738;5.852;2023-02-17T21:32:56;21.42;;;15.07;;
76069;SDS011;64768;51.738;5.852;2023-02-17T21:39:44;26.35;;;14.73;;
76069;SDS011;64768;51.738;5.852;2023-02-17T21:45:22;21.88;;;12.50;;
76069;SDS011;64768;51.738;5.852;2023-02-17T21:46:30;25.98;;;15.48;;
76069;SDS011;64768;51.738;5.852;2023-02-17T21:49:42;23.83;;;10.27;;
76069;SDS011;64768;51.738;5.852;2023-02-17T23:34:57;18.65;;;9.15;;
76069;SDS011;64768;51.738;5.852;2023-02-17T23:37:48;24.52;;;10.27;;
76069;SDS011;64768;51.738;5.852;2023-02-17T23:40:27;18.52;;;9.65;;
76069;SDS011;64768;51.738;5.852;2023-02-17T23:43:10;23.85;;;11.68;;
76069;SDS011;64768;51.738;5.852;2023-02-17T23:46:05;34.13;;;17.48;;
76069;SDS011;64768;51.738;5.852;2023-02-17T23:48:50;32.22;;;16.02;;
76069;SDS011;64768;51.738;5.852;2023-02-17T23:51:31;30.73;;;14.55;;
76069;SDS011;64768;51.738;5.852;2023-02-17T23:54:01;24.50;;;10.23;;
76069;SDS011;64768;51.738;5.852;2023-02-17T23:56:34;30.10;;;15.45;;
76069;SDS011;64768;51.738;5.852;2023-02-17T23:59:05;23.98;;;12.38;;
